Time;durP1;ratioP1;P1;durP2;ratioP2;P2;SDS_P1;SDS_P2;PMS_P1;PMS_P2;Temp;Humidity;BMP_temperature;BMP_pressure;BME280_temperature;BME280_humidity;BME280_pressure;Samples;Min_cycle;Max_cycle;Signal;HPM_P1;HPM_P2
2023/08/14 00:00:42;;;;;;;5.20;4.70;;;22.80;99.90;;;;;;5025290;28;20175;-70
2023/08/14 00:03:08;;;;;;;7.73;5.90;;;22.80;99.90;;;;;;5023794;28;20176;-71
2023/08/14 00:05:34;;;;;;;8.13;5.00;;;22.80;99.90;;;;;;5023834;28;20305;-71
2023/08/14 00:08:00;;;;;;;6.13;5.03;;;22.80;99.90;;;;;;5007409;28;20196;-71
2023/08/14 00:10:26;;;;;;;5.90;5.23;;;22.70;99.90;;;;;;5025216;28;20265;-71
2023/08/14 00:12:52;;;;;;;5.43;4.90;;;22.80;99.90;;;;;;5019477;28;20828;-70
2023/08/14 00:15:17;;;;;;;5.40;4.47;;;22.80;99.90;;;;;;5024303;28;20412;-70
2023/08/14 00:17:43;;;;;;;5.20;4.63;;;22.90;99.90;;;;;;5024861;28;20182;-70
2023/08/14 00:20:09;;;;;;;5.87;5.27;;;22.90;99.90;;;;;;5023284;28;20160;-70
2023/08/14 00:22:35;;;;;;;7.97;5.47;;;22.80;99.90;;;;;;5025386;28;20211;-70
2023/08/14 00:25:00;;;;;;;6.47;4.90;;;22.70;99.90;;;;;;5023122;28;20835;-70
2023/08/14 00:27:26;;;;;;;6.67;5.50;;;22.80;99.90;;;;;;5025930;28;20164;-71
2023/08/14 00:29:51;;;;;;;6.00;5.37;;;22.80;99.90;;;;;;5024167;28;20167;-70
2023/08/14 00:32:17;;;;;;;8.40;5.50;;;22.80;99.90;;;;;;5024505;28;20654;-70
2023/08/14 00:34:43;;;;;;;14.87;6.27;;;22.80;99.90;;;;;;5022059;28;20192;-70
2023/08/14 00:37:08;;;;;;;7.40;5.60;;;22.80;99.90;;;;;;5025334;28;20167;-69
2023/08/14 00:39:34;;;;;;;5.57;5.07;;;22.90;99.90;;;;;;5024244;28;20194;-70
2023/08/14 00:41:59;;;;;;;6.47;5.83;;;22.90;99.90;;;;;;5025472;28;20167;-69
2023/08/14 00:44:25;;;;;;;5.83;5.23;;;22.90;99.90;;;;;;5023838;28;20225;-70
2023/08/14 00:46:51;;;;;;;6.47;5.87;;;22.90;99.90;;;;;;5023583;28;20181;-69
2023/08/14 00:49:16;;;;;;;6.70;6.00;;;22.80;99.90;;;;;;5025447;28;20202;-70
2023/08/14 00:51:42;;;;;;;7.20;6.53;;;22.80;99.90;;;;;;5018601;28;20167;-69
2023/08/14 00:54:08;;;;;;;8.03;5.57;;;22.80;99.90;;;;;;5024191;28;20198;-70
2023/08/14 00:56:34;;;;;;;8.50;5.60;;;22.80;99.90;;;;;;5024073;28;20226;-69
2023/08/14 00:59:00;;;;;;;5.57;5.07;;;22.80;99.90;;;;;;5025066;28;20187;-70
2023/08/14 01:01:26;;;;;;;5.93;5.53;;;22.90;99.90;;;;;;5023286;28;20414;-69
2023/08/14 01:03:52;;;;;;;6.00;5.50;;;23.00;99.90;;;;;;5023190;28;20179;-70
2023/08/14 01:06:17;;;;;;;7.30;6.60;;;22.90;99.90;;;;;;5025641;28;20264;-70
2023/08/14 01:08:43;;;;;;;7.10;6.40;;;23.00;99.90;;;;;;5024594;28;20442;-69
2023/08/14 01:11:23;;;;;;;6.50;5.90;;;23.00;99.90;;;;;;5023990;28;20186;-70
2023/08/14 01:14:02;;;;;;;9.40;6.53;;;22.90;99.90;;;;;;5023681;28;20187;-70
2023/08/14 01:16:33;;;;;;;7.10;6.37;;;22.70;99.90;;;;;;5023697;28;20407;-70
2023/08/14 01:18:59;;;;;;;7.30;6.43;;;22.70;99.90;;;;;;5005992;28;21018;-70
2023/08/14 01:21:35;;;;;;;8.00;5.07;;;22.80;99.90;;;;;;5022970;28;20945;-71
2023/08/14 01:24:13;;;;;;;5.80;5.20;;;22.90;99.90;;;;;;5006775;28;20941;-70
2023/08/14 01:26:39;;;;;;;6.47;5.83;;;23.10;99.90;;;;;;5023110;28;20405;-70
2023/08/14 01:29:05;;;;;;;6.60;6.00;;;23.10;99.90;;;;;;5022012;28;20435;-70
2023/08/14 01:31:30;;;;;;;7.13;6.10;;;23.20;99.90;;;;;;5024549;28;20411;-70
2023/08/14 01:33:57;;;;;;;6.53;6.00;;;23.30;99.90;;;;;;5023865;28;20658;-71
2023/08/14 01:37:04;;;;;;;6.30;5.73;;;23.40;99.90;;;;;;5022348;28;20521;-71
2023/08/14 01:39:41;;;;;;;6.03;5.47;;;23.40;99.90;;;;;;5004294;28;20439;-71
2023/08/14 01:42:17;;;;;;;11.10;6.33;;;23.20;99.90;;;;;;5024299;28;20394;-70
2023/08/14 01:44:44;;;;;;;6.90;6.27;;;23.00;99.90;;;;;;5023739;28;20978;-70
2023/08/14 01:47:13;;;;;;;7.27;6.30;;;23.10;99.90;;;;;;5021819;28;20434;-70
2023/08/14 01:49:40;;;;;;;8.13;6.60;;;23.00;99.90;;;;;;5006593;28;21012;-69
2023/08/14 01:52:06;;;;;;;7.23;6.47;;;23.00;99.90;;;;;;5023569;28;20837;-70
2023/08/14 01:54:32;;;;;;;7.40;6.30;;;23.20;99.90;;;;;;5022477;28;20477;-71
2023/08/14 01:56:57;;;;;;;6.37;5.83;;;23.00;99.90;;;;;;5021546;28;20438;-70
2023/08/14 01:59:45;;;;;;;5.83;5.33;;;23.10;99.90;;;;;;5023742;28;20202;-70
2023/08/14 02:02:12;;;;;;;5.73;5.10;;;23.30;99.90;;;;;;5018715;28;20164;-70
2023/08/14 02:04:38;;;;;;;5.13;4.63;;;23.40;99.90;;;;;;5022511;28;20763;-70
2023/08/14 02:07:05;;;;;;;4.37;4.00;;;23.20;99.90;;;;;;5022967;28;20418;-71
2023/08/14 02:09:32;;;;;;;4.77;4.27;;;23.20;99.90;;;;;;5022756;28;20678;-70
2023/08/14 02:11:58;;;;;;;4.17;3.83;;;23.30;99.90;;;;;;5025243;28;20841;-70
2023/08/14 02:14:23;;;;;;;3.73;3.23;;;23.40;99.90;;;;;;5023171;28;20480;-71
2023/08/14 02:16:49;;;;;;;4.87;3.53;;;23.40;99.90;;;;;;5023093;28;20179;-71
2023/08/14 02:19:14;;;;;;;4.10;3.70;;;23.30;99.90;;;;;;5034262;23;20645;-70
2023/08/14 02:21:40;;;;;;;5.40;3.50;;;23.30;99.90;;;;;;5032435;28;20527;-71
2023/08/14 02:24:06;;;;;;;4.77;4.27;;;23.10;99.90;;;;;;5032272;28;20261;-71
2023/08/14 02:26:32;;;;;;;4.40;3.93;;;23.00;99.90;;;;;;5032138;28;20178;-71
2023/08/14 02:28:57;;;;;;;5.70;4.47;;;22.90;99.90;;;;;;5027790;28;20414;-71
2023/08/14 02:31:23;;;;;;;5.43;4.87;;;22.90;99.90;;;;;;5020390;28;20639;-71
2023/08/14 02:33:48;;;;;;;5.23;4.03;;;22.70;99.90;;;;;;5021056;28;20654;-71
2023/08/14 02:36:14;;;;;;;3.70;3.40;;;22.80;99.90;;;;;;5024314;28;20592;-70
2023/08/14 02:38:39;;;;;;;5.50;4.10;;;22.80;99.90;;;;;;5022247;28;20194;-70
2023/08/14 02:41:06;;;;;;;3.90;3.40;;;22.80;99.90;;;;;;5020900;28;20242;-72
2023/08/14 02:43:32;;;;;;;4.90;4.23;;;22.70;99.90;;;;;;5023851;28;20217;-72
2023/08/14 02:45:58;;;;;;;5.57;4.43;;;22.50;99.90;;;;;;5021544;28;20407;-72
2023/08/14 02:48:23;;;;;;;4.30;3.90;;;22.20;99.90;;;;;;5023031;28;20434;-72
2023/08/14 02:50:49;;;;;;;4.97;4.17;;;22.10;99.90;;;;;;5020838;28;20176;-71
2023/08/14 02:53:15;;;;;;;4.97;4.57;;;21.90;99.90;;;;;;5023005;28;20196;-71
2023/08/14 02:55:40;;;;;;;7.40;4.60;;;21.80;99.90;;;;;;5024286;28;20191;-71
2023/08/14 02:58:06;;;;;;;6.17;4.10;;;21.70;99.90;;;;;;5027406;28;20213;-71
2023/08/14 03:00:31;;;;;;;5.70;4.67;;;21.60;99.90;;;;;;5024653;28;20254;-71
2023/08/14 03:02:57;;;;;;;5.60;5.00;;;21.60;99.90;;;;;;5025597;28;20167;-71
2023/08/14 03:05:23;;;;;;;6.17;4.53;;;21.50;99.90;;;;;;5026285;28;20180;-71
2023/08/14 03:07:48;;;;;;;5.30;4.50;;;21.40;99.90;;;;;;5026985;28;20791;-71
2023/08/14 03:10:14;;;;;;;4.80;4.30;;;21.50;99.90;;;;;;5025633;28;20277;-71
2023/08/14 03:12:39;;;;;;;5.27;4.83;;;21.80;99.90;;;;;;5023952;28;20167;-71
2023/08/14 03:15:05;;;;;;;5.37;4.27;;;22.00;99.90;;;;;;5021320;28;20163;-71
2023/08/14 03:17:31;;;;;;;5.23;4.63;;;22.20;99.90;;;;;;5025690;28;20168;-72
2023/08/14 03:19:56;;;;;;;6.17;4.23;;;22.30;99.90;;;;;;5024408;28;20534;-71
2023/08/14 03:22:22;;;;;;;7.90;4.80;;;22.30;99.90;;;;;;5027116;28;20171;-71
2023/08/14 03:24:48;;;;;;;5.90;5.30;;;22.30;99.90;;;;;;5026661;28;20250;-71
2023/08/14 03:27:13;;;;;;;4.43;4.03;;;22.20;99.90;;;;;;5026527;28;20167;-71
2023/08/14 03:29:39;;;;;;;5.27;4.77;;;22.10;99.90;;;;;;5023682;28;20192;-71
2023/08/14 03:32:04;;;;;;;5.00;4.60;;;22.10;99.90;;;;;;5026185;28;20218;-72
2023/08/14 03:34:30;;;;;;;6.23;4.90;;;22.00;99.90;;;;;;5025972;28;20195;-71
2023/08/14 03:36:56;;;;;;;4.00;3.70;;;21.90;99.90;;;;;;5026337;28;20219;-72
2023/08/14 03:39:22;;;;;;;6.60;4.13;;;21.60;99.90;;;;;;5024407;28;20657;-72
2023/08/14 03:41:47;;;;;;;5.13;4.00;;;21.40;99.90;;;;;;5025011;28;20156;-71
2023/08/14 03:44:13;;;;;;;5.50;5.00;;;21.50;99.90;;;;;;5026525;28;20762;-72
2023/08/14 03:46:38;;;;;;;4.83;3.83;;;21.70;99.90;;;;;;5023669;28;20190;-71
2023/08/14 03:49:05;;;;;;;4.53;4.20;;;21.60;99.90;;;;;;5025012;28;20375;-71
2023/08/14 03:51:30;;;;;;;4.00;3.47;;;21.60;99.90;;;;;;5023790;28;20175;-71
2023/08/14 03:53:56;;;;;;;8.20;4.10;;;21.70;99.90;;;;;;5026409;28;20442;-72
2023/08/14 03:56:21;;;;;;;4.77;4.37;;;21.60;99.90;;;;;;5021825;28;20168;-71
2023/08/14 03:58:47;;;;;;;4.13;3.73;;;21.60;99.90;;;;;;5025668;28;20193;-71
2023/08/14 04:01:13;;;;;;;3.90;3.57;;;21.70;99.90;;;;;;5023190;28;20164;-71
2023/08/14 04:03:38;;;;;;;4.97;4.57;;;21.60;99.90;;;;;;5025329;28;20171;-72
2023/08/14 04:06:04;;;;;;;6.20;3.90;;;21.60;99.90;;;;;;5023198;28;20172;-70
2023/08/14 04:08:30;;;;;;;3.83;3.43;;;21.60;99.90;;;;;;5023792;28;20464;-71
2023/08/14 04:10:59;;;;;;;5.00;3.33;;;21.50;99.90;;;;;;5025149;28;20175;-72
2023/08/14 04:13:25;;;;;;;4.17;3.83;;;21.60;99.90;;;;;;5024427;28;20566;-72
2023/08/14 04:15:59;;;;;;;6.80;3.97;;;21.60;99.90;;;;;;5023902;28;20430;-70
2023/08/14 04:18:27;;;;;;;4.70;4.03;;;21.60;99.90;;;;;;5023041;28;20497;-71
2023/08/14 04:20:53;;;;;;;4.00;3.23;;;21.60;99.90;;;;;;5019633;28;20408;-72
2023/08/14 04:23:18;;;;;;;4.17;3.83;;;21.60;99.90;;;;;;5025129;28;20910;-71
2023/08/14 04:25:44;;;;;;;5.63;3.67;;;21.60;99.90;;;;;;5024625;28;20230;-72
2023/08/14 04:28:10;;;;;;;4.70;3.63;;;21.60;99.90;;;;;;5022248;28;20199;-71
2023/08/14 04:30:36;;;;;;;6.63;4.13;;;21.50;99.90;;;;;;5024107;28;20270;-70
2023/08/14 04:33:02;;;;;;;4.00;3.70;;;21.50;99.90;;;;;;5023809;28;21032;-71
2023/08/14 04:35:27;;;;;;;5.90;4.33;;;21.30;99.90;;;;;;5024020;28;20661;-71
2023/08/14 04:37:53;;;;;;;4.40;4.00;;;21.20;99.90;;;;;;5025237;28;20627;-71
2023/08/14 04:40:18;;;;;;;5.20;4.70;;;21.20;99.90;;;;;;5024194;28;20520;-70
2023/08/14 04:42:44;;;;;;;4.27;3.70;;;21.10;99.90;;;;;;5022432;28;20167;-71
2023/08/14 04:45:10;;;;;;;5.00;4.10;;;21.00;99.90;;;;;;5015966;28;20302;-71
2023/08/14 04:47:35;;;;;;;5.53;3.70;;;20.70;99.90;;;;;;5024240;28;20206;-71
2023/08/14 04:50:01;;;;;;;4.50;4.10;;;20.60;99.90;;;;;;5025092;28;20792;-72
2023/08/14 04:52:26;;;;;;;4.07;3.77;;;20.40;99.90;;;;;;5022622;28;20605;-70
2023/08/14 04:54:52;;;;;;;4.70;4.07;;;20.60;99.90;;;;;;5023029;28;20203;-71
2023/08/14 04:57:18;;;;;;;4.93;4.30;;;20.70;99.90;;;;;;5022844;28;20196;-71
2023/08/14 04:59:43;;;;;;;4.20;3.80;;;20.80;99.90;;;;;;5025050;28;20270;-72
2023/08/14 05:02:09;;;;;;;4.53;3.77;;;20.70;99.90;;;;;;5022972;28;20167;-71
2023/08/14 05:04:34;;;;;;;5.80;3.13;;;20.80;99.90;;;;;;5023115;28;20239;-73
2023/08/14 05:07:00;;;;;;;4.30;3.90;;;21.00;99.90;;;;;;5023598;28;20172;-71
2023/08/14 05:09:25;;;;;;;4.60;4.23;;;21.00;99.90;;;;;;5023278;28;20191;-72
2023/08/14 05:11:51;;;;;;;3.87;3.50;;;21.10;99.90;;;;;;5023090;28;20750;-71
2023/08/14 05:14:18;;;;;;;4.00;3.67;;;21.10;99.90;;;;;;5024910;28;20562;-72
2023/08/14 05:16:45;;;;;;;3.57;3.27;;;21.20;99.90;;;;;;5017456;28;20353;-71
2023/08/14 05:19:10;;;;;;;3.73;3.43;;;21.30;99.90;;;;;;5022479;28;20441;-71
2023/08/14 05:21:36;;;;;;;3.23;3.00;;;21.40;99.90;;;;;;5022392;28;20857;-72
2023/08/14 05:24:02;;;;;;;4.93;3.13;;;21.50;99.90;;;;;;5025068;28;20262;-71
2023/08/14 05:26:27;;;;;;;4.33;3.93;;;21.70;99.90;;;;;;5021067;28;20694;-72
2023/08/14 05:28:53;;;;;;;4.80;4.10;;;21.70;99.90;;;;;;5024033;28;20658;-72
2023/08/14 05:31:18;;;;;;;3.30;3.10;;;21.70;99.90;;;;;;5022232;28;20246;-72
2023/08/14 05:33:44;;;;;;;3.70;3.40;;;21.80;99.90;;;;;;5024092;28;20194;-71
2023/08/14 05:36:09;;;;;;;6.00;3.47;;;21.80;99.90;;;;;;5022755;28;20270;-71
2023/08/14 05:38:35;;;;;;;6.33;3.20;;;22.00;99.90;;;;;;5021602;28;20187;-72
2023/08/14 05:41:00;;;;;;;3.27;2.97;;;22.00;99.90;;;;;;5024029;28;20588;-72
2023/08/14 05:43:26;;;;;;;4.93;3.17;;;21.70;99.90;;;;;;5022918;28;20553;-72
2023/08/14 05:45:51;;;;;;;4.30;2.97;;;22.00;99.90;;;;;;5021600;28;20179;-72
2023/08/14 05:48:17;;;;;;;3.93;3.63;;;22.20;99.90;;;;;;5021611;28;20273;-73
2023/08/14 05:50:43;;;;;;;4.33;3.57;;;22.30;99.90;;;;;;5022856;28;20176;-71
2023/08/14 05:53:09;;;;;;;4.77;3.70;;;22.50;99.90;;;;;;5023951;28;20274;-71
2023/08/14 05:55:39;;;;;;;4.07;3.67;;;22.70;99.90;;;;;;5021308;28;20172;-71
2023/08/14 05:58:08;;;;;;;4.97;3.40;;;22.90;99.90;;;;;;5021913;28;20170;-72
2023/08/14 06:00:35;;;;;;;3.60;3.30;;;23.00;99.90;;;;;;5022457;28;20438;-71
2023/08/14 06:03:01;;;;;;;3.40;3.17;;;23.10;99.90;;;;;;5006105;28;20418;-72
2023/08/14 06:05:27;;;;;;;6.90;4.00;;;23.20;99.90;;;;;;5023061;28;20445;-71
2023/08/14 06:07:54;;;;;;;3.57;3.27;;;23.20;99.90;;;;;;5021882;28;20437;-70
2023/08/14 06:10:20;;;;;;;3.90;2.70;;;23.30;99.90;;;;;;5021834;28;20615;-72
2023/08/14 06:12:48;;;;;;;3.33;3.03;;;23.30;99.90;;;;;;5020941;28;20465;-72
2023/08/14 06:15:14;;;;;;;3.40;3.10;;;23.30;99.90;;;;;;5019542;28;20429;-72
2023/08/14 06:17:41;;;;;;;3.50;3.20;;;23.40;99.90;;;;;;5022402;28;20438;-72
2023/08/14 06:20:07;;;;;;;3.67;3.37;;;23.40;99.90;;;;;;5021581;28;20445;-71
2023/08/14 06:22:46;;;;;;;4.37;3.10;;;23.50;99.90;;;;;;5020922;28;20422;-70
2023/08/14 06:25:12;;;;;;;3.83;3.17;;;23.50;99.90;;;;;;5025550;28;20391;-71
2023/08/14 06:27:39;;;;;;;3.23;2.93;;;23.60;99.90;;;;;;5020909;28;20408;-72
2023/08/14 06:30:08;;;;;;;4.03;2.93;;;23.60;99.90;;;;;;5024350;28;20458;-72
2023/08/14 06:32:34;;;;;;;4.10;3.70;;;23.40;99.90;;;;;;5027319;28;20401;-72
2023/08/14 06:34:59;;;;;;;3.20;3.00;;;23.20;99.90;;;;;;5025777;28;20438;-72
2023/08/14 06:37:25;;;;;;;5.13;3.43;;;23.10;99.90;;;;;;5024637;28;20631;-72
2023/08/14 06:39:50;;;;;;;4.30;3.90;;;23.00;99.90;;;;;;5023933;28;20187;-73
2023/08/14 06:42:16;;;;;;;3.83;3.40;;;22.90;99.90;;;;;;5027885;28;20174;-72
2023/08/14 06:44:41;;;;;;;4.67;4.17;;;22.90;99.90;;;;;;5024919;28;20241;-71
2023/08/14 06:47:07;;;;;;;6.43;4.00;;;22.80;99.90;;;;;;5025025;28;20233;-73
2023/08/14 06:49:33;;;;;;;3.93;3.30;;;23.00;99.90;;;;;;5007481;28;20207;-72
2023/08/14 06:51:58;;;;;;;4.40;4.00;;;23.20;99.90;;;;;;5027710;28;20242;-71
2023/08/14 06:54:24;;;;;;;6.57;4.00;;;23.40;99.90;;;;;;5025972;28;20190;-71
2023/08/14 06:56:50;;;;;;;4.90;3.63;;;23.50;99.90;;;;;;5026045;28;20166;-72
2023/08/14 06:59:15;;;;;;;6.40;4.30;;;23.60;99.90;;;;;;5024766;28;20430;-71
2023/08/14 07:01:41;;;;;;;5.07;4.00;;;23.70;99.90;;;;;;5025869;28;20345;-73
2023/08/14 07:04:07;;;;;;;3.90;3.47;;;23.90;99.90;;;;;;5027054;28;20185;-72
2023/08/14 07:06:32;;;;;;;7.07;3.77;;;24.10;99.90;;;;;;5026715;28;20488;-71
2023/08/14 07:08:58;;;;;;;3.93;3.57;;;24.20;99.90;;;;;;5023426;28;20199;-70
2023/08/14 07:11:24;;;;;;;4.20;3.80;;;24.30;99.90;;;;;;5026704;28;20175;-72
2023/08/14 07:13:49;;;;;;;4.00;3.70;;;24.40;99.90;;;;;;5006680;28;20682;-73
2023/08/14 07:16:15;;;;;;;3.93;3.63;;;24.30;99.90;;;;;;5024506;28;20163;-71
2023/08/14 07:18:40;;;;;;;3.27;2.97;;;24.30;99.90;;;;;;5025091;28;20223;-71
2023/08/14 07:21:06;;;;;;;4.07;3.63;;;24.40;99.90;;;;;;5027275;28;20660;-72
2023/08/14 07:23:36;;;;;;;3.17;2.97;;;24.60;99.90;;;;;;5024694;28;20271;-70
2023/08/14 07:26:11;;;;;;;5.10;3.80;;;24.80;99.90;;;;;;5026203;28;20178;-72
2023/08/14 07:28:38;;;;;;;3.80;3.50;;;24.50;99.90;;;;;;5026255;28;20509;-72
2023/08/14 07:31:03;;;;;;;4.73;3.00;;;24.40;99.90;;;;;;5026052;28;20437;-71
2023/08/14 07:33:29;;;;;;;5.47;4.40;;;24.30;99.90;;;;;;5024070;28;20434;-71
2023/08/14 07:35:55;;;;;;;5.80;4.43;;;24.40;99.90;;;;;;5027362;28;20398;-72
2023/08/14 07:38:21;;;;;;;6.63;4.17;;;24.50;99.90;;;;;;5024275;28;20188;-72
2023/08/14 07:40:46;;;;;;;5.53;4.57;;;24.80;99.90;;;;;;5023579;28;20916;-72
2023/08/14 07:43:12;;;;;;;5.17;4.43;;;25.00;99.90;;;;;;5026048;28;20171;-71
2023/08/14 07:45:37;;;;;;;4.00;3.70;;;25.20;99.90;;;;;;5022985;28;20653;-72
2023/08/14 07:48:03;;;;;;;6.90;4.40;;;25.20;99.90;;;;;;5026554;28;20176;-72
2023/08/14 07:50:29;;;;;;;4.47;3.50;;;25.40;99.90;;;;;;5019651;28;20198;-71
2023/08/14 07:52:54;;;;;;;4.17;3.77;;;25.50;99.90;;;;;;5025507;28;20218;-71
2023/08/14 07:55:20;;;;;;;4.23;3.80;;;25.50;99.90;;;;;;5024367;28;20178;-71
2023/08/14 07:57:46;;;;;;;3.97;3.57;;;25.70;99.90;;;;;;5026333;28;20168;-72
2023/08/14 08:00:13;;;;;;;5.20;3.33;;;25.80;99.90;;;;;;5024530;28;20234;-72
2023/08/14 08:02:39;;;;;;;4.20;3.50;;;25.70;99.90;;;;;;5024307;28;20168;-72
2023/08/14 08:05:05;;;;;;;3.50;3.20;;;25.80;99.90;;;;;;5026248;28;20468;-71
2023/08/14 08:07:30;;;;;;;3.40;3.10;;;25.90;99.90;;;;;;5025799;28;20176;-71
2023/08/14 08:09:56;;;;;;;3.47;3.07;;;26.00;99.90;;;;;;5025156;28;20187;-71
2023/08/14 08:12:21;;;;;;;4.23;3.83;;;25.70;99.90;;;;;;5020700;28;20179;-71
2023/08/14 08:14:47;;;;;;;4.53;3.03;;;25.70;99.90;;;;;;5025881;28;20250;-71
2023/08/14 08:17:13;;;;;;;3.40;3.10;;;25.50;99.90;;;;;;5025132;28;20251;-72
2023/08/14 08:19:38;;;;;;;3.07;2.70;;;25.40;99.90;;;;;;5026727;28;20266;-72
2023/08/14 08:22:04;;;;;;;4.13;2.77;;;25.70;99.90;;;;;;5023403;28;20164;-71
2023/08/14 08:24:29;;;;;;;4.40;3.10;;;26.00;99.90;;;;;;5024212;28;20212;-71
2023/08/14 08:26:55;;;;;;;2.93;2.60;;;26.20;99.90;;;;;;5023290;28;20172;-72
2023/08/14 08:29:21;;;;;;;4.80;2.67;;;26.30;99.90;;;;;;5025928;28;20188;-71
2023/08/14 08:31:46;;;;;;;2.90;2.70;;;26.60;99.90;;;;;;5023704;28;20167;-71
2023/08/14 08:34:12;;;;;;;2.83;2.63;;;26.80;99.90;;;;;;5023552;28;20199;-71
2023/08/14 08:36:37;;;;;;;4.33;2.80;;;26.80;99.90;;;;;;5022478;28;20170;-71
2023/08/14 08:39:03;;;;;;;4.13;2.30;;;26.90;99.90;;;;;;5026593;28;20219;-71
2023/08/14 08:41:32;;;;;;;3.90;2.90;;;26.80;99.90;;;;;;5025800;28;20175;-72
2023/08/14 08:44:05;;;;;;;3.10;2.70;;;26.90;99.90;;;;;;5022572;28;20180;-70
2023/08/14 08:46:35;;;;;;;4.80;3.33;;;26.90;99.90;;;;;;5004864;28;20403;-71
2023/08/14 08:49:03;;;;;;;2.50;2.30;;;26.90;99.90;;;;;;5019004;28;20431;-73
2023/08/14 08:51:30;;;;;;;3.60;2.77;;;27.00;99.90;;;;;;5024972;28;20415;-72
2023/08/14 08:53:55;;;;;;;2.37;2.10;;;27.00;99.90;;;;;;5023250;28;20473;-72
2023/08/14 08:56:22;;;;;;;2.80;2.60;;;27.30;99.90;;;;;;5025352;28;20434;-72
2023/08/14 08:58:48;;;;;;;3.70;2.90;;;27.50;99.90;;;;;;5022194;28;20192;-72
2023/08/14 09:01:14;;;;;;;4.20;2.83;;;27.70;99.90;;;;;;5023707;28;20399;-72
2023/08/14 09:03:40;;;;;;;4.37;3.17;;;27.70;99.90;;;;;;5024848;28;20406;-72
2023/08/14 09:06:05;;;;;;;3.30;2.90;;;27.70;99.90;;;;;;5022988;28;20254;-72
2023/08/14 09:08:31;;;;;;;2.87;2.63;;;27.80;99.90;;;;;;5024516;28;20198;-72
2023/08/14 09:10:56;;;;;;;3.87;2.93;;;28.00;99.90;;;;;;5024770;28;20228;-72
2023/08/14 09:13:22;;;;;;;3.30;3.00;;;27.80;99.90;;;;;;5022045;28;20195;-71
2023/08/14 09:15:48;;;;;;;3.43;3.13;;;27.80;99.90;;;;;;5025751;28;20194;-71
2023/08/14 09:18:13;;;;;;;3.43;3.13;;;28.00;99.90;;;;;;5022887;28;20200;-71
2023/08/14 09:20:39;;;;;;;3.60;3.30;;;28.20;99.90;;;;;;5024997;28;20245;-72
2023/08/14 09:23:10;;;;;;;3.07;2.87;;;28.30;99.90;;;;;;5022327;28;20541;-71
2023/08/14 09:25:36;;;;;;;3.50;3.20;;;28.30;99.90;;;;;;5025105;28;20394;-71
2023/08/14 09:28:02;;;;;;;3.90;3.60;;;28.30;99.90;;;;;;5022198;28;20465;-73
2023/08/14 09:30:28;;;;;;;3.47;3.17;;;28.30;99.90;;;;;;5024765;28;20175;-71
2023/08/14 09:32:55;;;;;;;4.10;3.73;;;28.20;99.90;;;;;;5022412;28;20167;-72
2023/08/14 09:35:20;;;;;;;3.20;2.60;;;28.40;99.90;;;;;;5023428;28;20573;-71
2023/08/14 09:37:48;;;;;;;3.37;3.07;;;28.40;99.90;;;;;;5022145;28;20442;-72
2023/08/14 09:40:16;;;;;;;3.40;3.10;;;28.40;99.90;;;;;;5018428;28;20617;-72
2023/08/14 09:42:49;;;;;;;4.60;3.87;;;28.50;99.90;;;;;;5023772;28;20986;-72
2023/08/14 09:45:16;;;;;;;4.70;3.47;;;28.60;99.90;;;;;;5024482;28;20395;-72
2023/08/14 09:47:44;;;;;;;3.17;2.97;;;28.70;99.90;;;;;;5024230;28;20459;-72
2023/08/14 09:50:11;;;;;;;3.83;3.47;;;28.80;99.90;;;;;;5021849;28;20456;-71
2023/08/14 09:52:37;;;;;;;4.10;3.70;;;29.00;99.90;;;;;;5024265;28;20935;-72
2023/08/14 09:55:03;;;;;;;2.90;2.63;;;29.00;99.90;;;;;;5022478;28;21026;-71
2023/08/14 09:57:29;;;;;;;3.73;3.37;;;29.00;99.90;;;;;;5023978;28;20414;-71
2023/08/14 09:59:55;;;;;;;4.10;3.30;;;29.00;99.90;;;;;;5021855;28;20419;-72
2023/08/14 10:02:23;;;;;;;3.80;3.20;;;29.10;99.90;;;;;;5022927;28;20164;-71
2023/08/14 10:04:49;;;;;;;6.17;3.70;;;29.20;99.90;;;;;;5020936;28;20457;-71
2023/08/14 10:07:17;;;;;;;3.70;3.40;;;29.30;99.90;;;;;;5024370;28;20418;-72
2023/08/14 10:09:51;;;;;;;3.93;3.57;;;29.50;99.90;;;;;;5019316;28;20424;-72
2023/08/14 10:12:20;;;;;;;5.73;3.70;;;29.50;99.90;;;;;;5021409;28;20430;-71
2023/08/14 10:14:56;;;;;;;3.87;3.40;;;29.60;99.90;;;;;;5019093;28;20561;-72
2023/08/14 10:17:34;;;;;;;4.40;3.93;;;29.90;99.90;;;;;;5021903;28;20897;-70
2023/08/14 10:20:03;;;;;;;3.80;3.50;;;29.90;99.90;;;;;;5023281;28;20529;-70
2023/08/14 10:22:30;;;;;;;3.97;3.43;;;30.00;99.90;;;;;;5022731;28;20413;-71
2023/08/14 10:24:56;;;;;;;4.00;3.70;;;30.40;99.90;;;;;;5022815;28;20410;-72
2023/08/14 10:27:22;;;;;;;3.50;3.20;;;31.00;99.90;;;;;;5018165;28;20449;-72
2023/08/14 10:29:48;;;;;;;3.43;3.13;;;31.30;99.90;;;;;;5023003;28;20192;-71
2023/08/14 10:32:14;;;;;;;4.33;3.90;;;31.60;99.90;;;;;;5022746;28;20175;-72
2023/08/14 10:34:42;;;;;;;3.77;3.37;;;31.50;99.90;;;;;;5023801;28;20441;-72
2023/08/14 10:37:22;;;;;;;4.50;3.47;;;31.40;99.90;;;;;;5021313;28;20910;-70
2023/08/14 10:39:48;;;;;;;4.03;3.60;;;31.10;99.90;;;;;;5019705;28;20471;-71
2023/08/14 10:42:15;;;;;;;4.00;3.60;;;31.10;99.90;;;;;;5021331;28;20425;-71
2023/08/14 10:44:43;;;;;;;4.47;3.80;;;30.90;99.90;;;;;;5023842;28;20172;-72
2023/08/14 10:47:12;;;;;;;4.30;3.43;;;31.10;99.90;;;;;;5023628;28;20442;-71
2023/08/14 10:49:44;;;;;;;4.00;3.60;;;31.10;99.90;;;;;;5017310;28;20960;-71
2023/08/14 10:52:21;;;;;;;4.10;3.73;;;31.60;99.90;;;;;;5017227;28;20419;-72
2023/08/14 10:54:51;;;;;;;3.83;3.10;;;31.90;99.90;;;;;;5018278;28;20441;-72
2023/08/14 10:57:17;;;;;;;3.23;2.93;;;32.10;99.90;;;;;;5020946;28;20406;-72
2023/08/14 10:59:57;;;;;;;3.53;3.23;;;33.20;99.90;;;;;;5022004;28;20418;-71
2023/08/14 11:02:29;;;;;;;3.90;3.50;;;34.60;99.90;;;;;;5021708;28;20448;-71
2023/08/14 11:05:11;;;;;;;3.30;3.10;;;34.70;98.30;;;;;;5024593;28;20394;-72
2023/08/14 11:07:37;;;;;;;3.43;3.13;;;34.00;99.30;;;;;;5023295;28;20403;-72
2023/08/14 11:10:04;;;;;;;5.27;3.80;;;33.10;99.90;;;;;;5003940;28;20802;-72
2023/08/14 11:12:33;;;;;;;3.50;3.20;;;33.00;99.90;;;;;;5020337;28;20580;-71
2023/08/14 11:14:59;;;;;;;3.47;3.17;;;33.70;99.10;;;;;;5016654;28;20813;-71
2023/08/14 11:17:25;;;;;;;3.70;3.40;;;33.60;98.90;;;;;;5023362;28;20429;-72
2023/08/14 11:19:50;;;;;;;6.00;3.60;;;33.60;99.70;;;;;;5024722;28;20208;-71
2023/08/14 11:22:16;;;;;;;6.23;3.83;;;34.00;98.00;;;;;;5027129;28;20630;-72
2023/08/14 11:24:41;;;;;;;4.90;3.30;;;33.90;98.40;;;;;;5025181;28;20261;-72
2023/08/14 11:27:07;;;;;;;3.47;2.80;;;33.90;98.30;;;;;;5025978;28;20171;-71
2023/08/14 11:29:35;;;;;;;5.27;3.83;;;34.10;98.30;;;;;;5023861;28;20646;-71
2023/08/14 11:32:01;;;;;;;4.73;4.33;;;33.90;97.30;;;;;;5019861;28;20625;-72
2023/08/14 11:34:27;;;;;;;5.00;3.50;;;34.60;96.50;;;;;;5024220;28;20450;-72
2023/08/14 11:37:01;;;;;;;3.40;3.10;;;34.70;95.70;;;;;;5024102;28;20395;-72
2023/08/14 11:39:27;;;;;;;4.83;3.93;;;35.20;97.40;;;;;;5022255;28;20188;-71
2023/08/14 11:41:53;;;;;;;4.57;3.77;;;36.50;95.20;;;;;;5026728;28;20407;-72
2023/08/14 11:44:19;;;;;;;3.53;3.23;;;37.00;93.30;;;;;;5025074;28;20402;-71
2023/08/14 11:46:45;;;;;;;3.30;3.00;;;39.00;89.80;;;;;;5025604;28;20448;-72
2023/08/14 11:49:12;;;;;;;3.97;3.20;;;41.10;83.50;;;;;;5023523;28;20238;-72
2023/08/14 11:51:41;;;;;;;2.93;2.63;;;41.20;75.70;;;;;;5008671;28;20781;-72
2023/08/14 11:54:08;;;;;;;3.40;3.10;;;41.70;74.70;;;;;;5024685;28;20433;-71
2023/08/14 11:56:35;;;;;;;2.97;2.77;;;41.70;70.30;;;;;;5024989;28;20416;-72
2023/08/14 11:59:01;;;;;;;2.90;2.67;;;41.40;70.60;;;;;;5023258;28;20418;-72
2023/08/14 12:01:26;;;;;;;3.60;3.30;;;41.00;69.80;;;;;;5025351;28;20407;-73
2023/08/14 12:03:52;;;;;;;3.30;3.10;;;39.60;73.90;;;;;;5025459;28;20171;-72
2023/08/14 12:06:18;;;;;;;3.57;3.27;;;37.70;73.90;;;;;;5023264;28;20175;-71
2023/08/14 12:08:43;;;;;;;3.03;2.83;;;37.10;78.20;;;;;;5021783;28;20192;-72
2023/08/14 12:11:14;;;;;;;3.63;3.17;;;38.40;80.70;;;;;;5024952;28;20178;-72
2023/08/14 12:13:40;;;;;;;3.90;3.50;;;38.30;75.60;;;;;;5023371;28;20699;-72
2023/08/14 12:16:06;;;;;;;8.50;3.80;;;38.00;75.50;;;;;;5020493;28;20399;-71
2023/08/14 12:18:32;;;;;;;3.20;2.90;;;36.90;75.30;;;;;;5025049;28;20730;-72
2023/08/14 12:20:58;;;;;;;3.97;3.30;;;37.20;76.90;;;;;;5025192;28;20438;-71
2023/08/14 12:23:24;;;;;;;4.00;3.23;;;37.10;77.10;;;;;;5022991;28;20666;-71
2023/08/14 12:25:51;;;;;;;3.37;3.07;;;36.40;79.70;;;;;;5024236;28;20178;-71
2023/08/14 12:28:16;;;;;;;3.77;3.13;;;36.40;83.60;;;;;;5023692;28;20334;-72
2023/08/14 12:30:42;;;;;;;3.30;3.00;;;36.30;84.70;;;;;;5025356;28;20430;-72
2023/08/14 12:33:08;;;;;;;3.20;3.00;;;36.10;83.70;;;;;;5022727;28;20160;-71
2023/08/14 12:35:35;;;;;;;3.63;3.00;;;35.30;83.10;;;;;;5024034;28;20163;-71
2023/08/14 12:38:01;;;;;;;6.33;3.80;;;35.10;88.40;;;;;;5022531;28;20645;-71
2023/08/14 12:40:27;;;;;;;5.20;3.70;;;34.40;90.80;;;;;;5022735;28;20399;-72
2023/08/14 12:42:53;;;;;;;4.90;3.67;;;33.60;90.20;;;;;;5024841;28;20172;-72
2023/08/14 12:45:19;;;;;;;5.53;3.60;;;32.00;93.90;;;;;;5023740;28;20728;-72